createdAt,value
2018-06-03T00:03:00.612Z,101258.19
2018-06-03T00:06:06.789Z,101262.21
2018-06-03T00:09:11.867Z,101262.33
2018-06-03T00:12:16.959Z,101268.06
2018-06-03T00:15:21.700Z,101273.33
2018-06-03T00:18:27.673Z,101271.67
2018-06-03T00:21:44.143Z,101276.48
2018-06-03T00:24:50.090Z,101270.10
2018-06-03T00:27:55.950Z,101277.14
2018-06-03T00:31:01.958Z,101272.47
2018-06-03T00:34:08.896Z,101276.48
2018-06-03T00:37:15.041Z,101276.12
2018-06-03T00:40:20.295Z,101275.42
2018-06-03T00:43:27.428Z,101266.87
2018-06-03T00:47:08.211Z,101275.36
2018-06-03T00:50:14.289Z,101273.10
2018-06-03T00:53:20.095Z,101269.31
2018-06-03T00:56:36.506Z,101270.37
2018-06-03T00:59:43.047Z,101272.11
2018-06-03T01:02:49.191Z,101270.92
2018-06-03T01:05:54.339Z,101271.03
2018-06-03T01:09:00.006Z,101268.55
2018-06-03T01:12:06.156Z,101271.73
2018-06-03T01:15:11.626Z,101279.17
2018-06-03T01:18:17.766Z,101271.95
2018-06-03T01:21:22.926Z,101271.59
2018-06-03T01:24:28.058Z,101265.18
2018-06-03T01:27:33.182Z,101263.63
2018-06-03T01:30:38.310Z,101269.41
2018-06-03T01:33:44.134Z,101266.81
2018-06-03T01:36:49.282Z,101267.40
2018-06-03T01:39:54.415Z,101268.81
2018-06-03T01:42:59.527Z,101268.45
2018-06-03T01:46:04.860Z,101268.53
2018-06-03T01:49:10.175Z,101271.23
2018-06-03T01:52:15.980Z,101265.69
2018-06-03T01:55:20.881Z,101263.20
2018-06-03T01:58:26.670Z,101266.73
2018-06-03T02:01:31.753Z,101268.03
2018-06-03T02:04:37.283Z,101266.02
2018-06-03T02:07:42.390Z,101271.22
2018-06-03T02:10:47.925Z,101265.19
2018-06-03T02:13:53.846Z,101267.79
2018-06-03T02:16:58.653Z,101274.75
2018-06-03T02:20:04.310Z,101274.86
2018-06-03T02:23:09.917Z,101270.14
2018-06-03T02:26:15.952Z,101277.54
2018-06-03T02:29:21.898Z,101277.08
2018-06-03T02:32:26.990Z,101270.22
2018-06-03T02:35:32.057Z,101268.92
2018-06-03T02:38:37.854Z,101271.16
2018-06-03T02:41:43.455Z,101266.43
2018-06-03T02:44:48.545Z,101265.95
2018-06-03T02:47:55.409Z,101272.92
2018-06-03T02:51:00.516Z,101269.14
2018-06-03T02:54:06.701Z,101262.28
2018-06-03T02:57:12.428Z,101265.36
2018-06-03T03:00:18.685Z,101265.36
2018-06-03T03:03:24.619Z,101277.87
2018-06-03T03:06:29.724Z,101274.45
2018-06-03T03:09:34.527Z,101277.52
2018-06-03T03:12:40.100Z,101278.09
2018-06-03T03:15:45.222Z,101278.92
2018-06-03T03:18:50.715Z,101274.67
2018-06-03T03:21:55.822Z,101271.59
2018-06-03T03:25:01.538Z,101279.39
2018-06-03T03:28:07.086Z,101278.92
2018-06-03T03:31:13.177Z,101276.80
2018-06-03T03:34:19.713Z,101278.56
2018-06-03T03:37:25.424Z,101275.13
2018-06-03T03:40:31.573Z,101273.37
2018-06-03T03:43:37.706Z,101269.94
2018-06-03T03:46:42.785Z,101266.05
2018-06-03T03:49:47.950Z,101272.06
2018-06-03T03:52:53.058Z,101271.23
2018-06-03T03:55:59.250Z,101272.06
2018-06-03T03:59:04.667Z,101280.69
2018-06-03T04:02:09.789Z,101280.22
2018-06-03T04:05:15.666Z,101278.45
2018-06-03T04:08:20.765Z,101279.75
2018-06-03T04:11:25.847Z,101283.65
2018-06-03T04:14:31.929Z,101280.22
2018-06-03T04:17:37.412Z,101277.63
2018-06-03T04:20:42.497Z,101277.05
2018-06-03T04:23:47.579Z,101276.58
2018-06-03T04:26:53.498Z,101280.94
2018-06-03T04:29:58.568Z,101279.53
2018-06-03T04:33:03.865Z,101278.23
2018-06-03T04:36:08.954Z,101278.70
2018-06-03T04:39:14.060Z,101284.62
2018-06-03T04:42:19.681Z,101288.05
2018-06-03T04:45:24.803Z,101291.11
2018-06-03T04:48:30.161Z,101294.07
2018-06-03T04:51:36.251Z,101297.50
2018-06-03T04:54:41.354Z,101295.26
2018-06-03T04:57:46.974Z,101293.05
2018-06-03T05:00:53.007Z,101292.58
2018-06-03T05:03:58.581Z,101295.55
2018-06-03T05:07:03.673Z,101290.92
2018-06-03T05:10:09.486Z,101291.64
2018-06-03T05:13:14.337Z,101285.15
2018-06-03T05:16:20.870Z,101294.24
2018-06-03T05:19:26.960Z,101291.64
2018-06-03T05:22:32.657Z,101290.34
2018-06-03T05:25:37.782Z,101290.34
2018-06-03T05:28:43.193Z,101295.55
2018-06-03T05:31:48.521Z,101287.28
2018-06-03T05:34:54.030Z,101286.45
2018-06-03T05:37:59.474Z,101292.94
2018-06-03T05:41:05.041Z,101291.06
2018-06-03T05:44:10.133Z,101292.00
2018-06-03T05:47:16.077Z,101293.55
2018-06-03T05:50:22.269Z,101293.91
2018-06-03T05:53:28.485Z,101293.91
2018-06-03T05:56:34.198Z,101299.47
2018-06-03T05:59:39.290Z,101300.77
2018-06-03T06:02:44.865Z,101307.16
2018-06-03T06:05:49.938Z,101302.78
2018-06-03T06:08:55.029Z,101306.13
2018-06-03T06:12:00.917Z,101309.56
2018-06-03T06:15:06.028Z,101308.16
2018-06-03T06:18:11.755Z,101308.87
2018-06-03T06:21:16.972Z,101310.06
2018-06-03T06:24:22.794Z,101309.84
2018-06-03T06:27:27.867Z,101307.98
2018-06-03T06:30:34.033Z,101299.25
2018-06-03T06:33:39.547Z,101305.88
2018-06-03T06:36:45.473Z,101307.07
2018-06-03T06:39:50.548Z,101311.58
2018-06-03T06:42:55.650Z,101315.28
2018-06-03T06:46:01.790Z,101321.56
2018-06-03T06:49:06.874Z,101313.53
2018-06-03T06:52:12.470Z,101325.88
2018-06-03T06:55:18.582Z,101327.78
2018-06-03T06:58:24.088Z,101332.17
2018-06-03T07:01:29.140Z,101338.59
2018-06-03T07:04:35.333Z,101333.62
2018-06-03T07:07:40.841Z,101333.77
2018-06-03T07:10:45.938Z,101337.91
2018-06-03T07:13:51.035Z,101350.25
2018-06-03T07:16:57.482Z,101341.86
2018-06-03T07:20:03.742Z,101352.39
2018-06-03T07:23:09.533Z,101344.75
2018-06-03T07:26:14.612Z,101348.81
2018-06-03T07:29:20.536Z,101352.37
2018-06-03T07:32:25.671Z,101350.88
2018-06-03T07:35:30.903Z,101351.48
2018-06-03T07:38:37.766Z,101344.74
2018-06-03T07:41:43.841Z,101352.70
2018-06-03T07:44:49.432Z,101348.22
2018-06-03T07:47:54.621Z,101348.45
2018-06-03T07:50:59.718Z,101346.09
2018-06-03T07:54:05.834Z,101352.84
2018-06-03T07:57:11.033Z,101353.23
2018-06-03T08:00:16.122Z,101356.31
2018-06-03T08:03:21.204Z,101353.71
2018-06-03T08:06:26.290Z,101361.64
2018-06-03T08:09:31.381Z,101366.77
2018-06-03T08:12:37.186Z,101363.57
2018-06-03T08:15:42.722Z,101365.23
2018-06-03T08:18:48.864Z,101365.23
2018-06-03T08:21:53.950Z,101362.87
2018-06-03T08:24:59.911Z,101364.41
2018-06-03T08:28:04.962Z,101361.33
2018-06-03T08:31:10.939Z,101363.34
2018-06-03T08:34:17.545Z,101368.82
2018-06-03T08:48:58.374Z,101369.69
2018-06-03T08:52:03.484Z,101372.65
2018-06-03T08:55:09.694Z,101374.45
2018-06-03T08:58:15.577Z,101373.27
2018-06-03T09:01:21.550Z,101377.33
2018-06-03T09:04:27.502Z,101380.08
2018-06-03T09:07:33.301Z,101378.89
2018-06-03T09:10:38.474Z,101383.30
2018-06-03T09:13:43.569Z,101383.54
2018-06-03T09:16:48.654Z,101390.52
2018-06-03T09:19:54.817Z,101393.39
2018-06-03T09:22:59.908Z,101384.98
2018-06-03T09:26:05.729Z,101385.56
2018-06-03T09:29:10.882Z,101391.02
2018-06-03T09:32:16.430Z,101388.80
2018-06-03T09:35:22.437Z,101387.84
2018-06-03T09:38:27.646Z,101380.73
2018-06-03T10:16:13.919Z,101392.11
2018-06-03T10:19:19.817Z,101391.85
2018-06-03T10:22:25.054Z,101390.92
2018-06-03T10:25:30.828Z,101394.73
2018-06-03T10:28:35.925Z,101393.77
2018-06-03T10:31:41.067Z,101396.62
2018-06-03T10:34:46.144Z,101393.07
2018-06-03T10:37:52.110Z,101398.14
2018-06-03T10:40:57.317Z,101400.19
2018-06-03T10:44:03.254Z,101394.73
2018-06-03T10:47:08.305Z,101398.75
2018-06-03T10:50:13.452Z,101391.47
2018-06-03T10:53:19.393Z,101395.48
2018-06-03T10:56:24.490Z,101389.30
2018-06-03T10:59:30.140Z,101391.78
2018-06-03T11:02:36.032Z,101392.45
2018-06-03T11:05:41.133Z,101392.92
2018-06-03T11:08:46.509Z,101385.53
2018-06-03T11:11:51.883Z,101388.84
2018-06-03T11:14:57.288Z,101390.61
2018-06-03T11:18:02.411Z,101390.35
2018-06-03T11:21:07.504Z,101392.39
2018-06-03T11:24:12.696Z,101386.94
2018-06-03T11:27:18.832Z,101385.23
2018-06-03T11:30:23.880Z,101391.72
2018-06-03T11:33:28.980Z,101383.04
2018-06-03T11:36:34.249Z,101387.17
2018-06-03T11:39:40.249Z,101387.73
2018-06-03T11:42:46.158Z,101388.12
2018-06-03T11:45:52.090Z,101390.47
2018-06-03T11:48:57.153Z,101390.60
2018-06-03T11:52:02.703Z,101392.04
2018-06-03T11:55:08.880Z,101393.92
2018-06-03T11:58:54.265Z,101402.03
2018-06-03T12:01:59.101Z,101396.23
2018-06-03T12:05:05.135Z,101386.97
2018-06-03T12:08:10.199Z,101386.41
2018-06-03T12:11:15.631Z,101383.09
2018-06-03T12:14:20.687Z,101381.09
2018-06-03T12:17:26.279Z,101379.19
2018-06-03T12:20:31.407Z,101380.02
2018-06-03T12:23:36.693Z,101383.94
2018-06-03T12:26:41.757Z,101385.24
2018-06-03T12:29:46.608Z,101386.80
2018-06-03T12:32:51.669Z,101376.48
2018-06-03T12:35:56.776Z,101383.71
2018-06-03T12:39:02.082Z,101384.41
2018-06-03T12:42:06.844Z,101370.73
2018-06-03T12:45:12.433Z,101375.70
2018-06-03T12:48:17.892Z,101369.76
2018-06-03T12:51:23.585Z,101365.02
2018-06-03T12:54:28.715Z,101364.75
2018-06-03T12:57:33.788Z,101360.08
2018-06-03T13:00:39.818Z,101357.34
2018-06-03T13:03:45.559Z,101359.45
2018-06-03T13:06:50.698Z,101353.13
2018-06-03T13:09:55.753Z,101354.89
2018-06-03T13:13:01.162Z,101354.98
2018-06-03T13:16:07.159Z,101358.50
2018-06-03T13:19:12.286Z,101354.20
2018-06-03T13:22:18.560Z,101352.02
2018-06-03T13:25:23.829Z,101351.64
2018-06-03T13:28:29.415Z,101346.69
2018-06-03T13:31:35.322Z,101348.45
2018-06-03T13:34:40.397Z,101342.47
2018-06-03T13:37:46.419Z,101335.09
2018-06-03T13:40:51.824Z,101336.48
2018-06-03T13:43:56.937Z,101333.11
2018-06-03T13:47:01.721Z,101328.45
2018-06-03T13:50:07.658Z,101328.87
2018-06-03T13:53:13.478Z,101325.97
2018-06-03T13:56:18.622Z,101324.42
2018-06-03T13:59:25.340Z,101317.26
2018-06-03T14:02:30.825Z,101318.98
2018-06-03T14:05:36.803Z,101320.73
2018-06-03T14:08:42.507Z,101316.52
2018-06-03T14:11:47.573Z,101312.80
2018-06-03T14:14:54.016Z,101309.21
2018-06-03T14:18:00.061Z,101303.84
2018-06-03T14:21:05.918Z,101305.77
2018-06-03T14:24:11.752Z,101305.48
2018-06-03T14:27:17.297Z,101301.31
2018-06-03T14:30:23.066Z,101302.82
2018-06-03T14:33:28.577Z,101300.06
2018-06-03T14:36:33.683Z,101288.97
2018-06-03T14:39:38.765Z,101293.12
2018-06-03T14:42:44.249Z,101294.63
2018-06-03T14:45:49.081Z,101290.08
2018-06-03T14:48:55.984Z,101287.18
2018-06-03T14:52:01.099Z,101286.70
2018-06-03T14:55:06.858Z,101283.25
2018-06-03T14:58:11.643Z,101277.73
2018-06-03T15:01:16.787Z,101271.41
2018-06-03T15:04:21.848Z,101273.89
2018-06-03T15:07:26.924Z,101267.20
2018-06-03T15:10:31.780Z,101267.55
2018-06-03T15:13:36.723Z,101257.27
2018-06-03T15:16:43.021Z,101263.22
2018-06-03T15:19:48.433Z,101257.05
2018-06-03T15:22:53.573Z,101261.31
2018-06-03T15:26:00.171Z,101259.66
2018-06-03T15:29:05.545Z,101257.13
2018-06-03T15:32:11.295Z,101251.06
2018-06-03T15:35:16.921Z,101250.58
2018-06-03T15:38:21.698Z,101246.19
2018-06-03T15:41:28.470Z,101247.13
2018-06-03T15:44:33.668Z,101247.13
2018-06-03T15:47:38.785Z,101242.17
2018-06-03T15:50:43.590Z,101237.09
2018-06-03T15:53:48.420Z,101237.57
2018-06-03T15:56:53.804Z,101234.47
2018-06-03T15:59:59.008Z,101238.05
2018-06-03T16:03:04.546Z,101237.57
2018-06-03T16:06:10.147Z,101238.20
2018-06-03T16:09:16.161Z,101231.31
2018-06-03T16:12:21.700Z,101235.38
2018-06-03T16:15:28.248Z,101222.06
2018-06-03T16:18:33.763Z,101217.45
2018-06-03T16:21:39.796Z,101217.59
2018-06-03T16:24:45.181Z,101212.98
2018-06-03T16:27:49.986Z,101210.03
2018-06-03T16:30:55.545Z,101212.98
2018-06-03T16:34:00.360Z,101211.34
2018-06-03T16:37:06.248Z,101205.28
2018-06-03T16:40:11.801Z,101202.32
2018-06-03T16:43:16.892Z,101207.67
2018-06-03T16:46:21.848Z,101207.19
2018-06-03T16:49:27.384Z,101203.26
2018-06-03T16:52:33.171Z,101199.95
2018-06-03T16:55:38.303Z,101194.72
2018-06-03T16:58:43.141Z,101197.83
2018-06-03T17:01:48.110Z,101193.56
2018-06-03T17:04:53.921Z,101191.08
2018-06-03T17:07:59.066Z,101193.36
2018-06-03T17:11:03.951Z,101190.89
2018-06-03T17:14:09.260Z,101187.70
2018-06-03T17:17:14.370Z,101175.72
2018-06-03T17:20:20.108Z,101171.59
2018-06-03T17:23:26.228Z,101169.27
2018-06-03T17:26:31.941Z,101162.30
2018-06-03T17:29:37.140Z,101160.31
2018-06-03T17:32:43.162Z,101162.53
2018-06-03T17:35:47.940Z,101155.08
2018-06-03T17:38:54.401Z,101158.12
2018-06-03T17:41:59.232Z,101147.56
2018-06-03T17:45:04.580Z,101146.20
2018-06-03T17:48:09.426Z,101144.70
2018-06-03T17:51:14.640Z,101142.09
2018-06-03T17:54:20.436Z,101143.83
2018-06-03T17:57:26.073Z,101149.48
2018-06-03T18:00:31.696Z,101149.05
2018-06-03T18:03:36.801Z,101140.80
2018-06-03T18:06:42.458Z,101137.27
2018-06-03T18:09:47.945Z,101142.77
2018-06-03T18:12:52.976Z,101140.55
2018-06-03T18:15:58.448Z,101143.72
2018-06-03T18:19:04.168Z,101141.04
2018-06-03T18:22:09.984Z,101134.06
2018-06-03T18:25:15.404Z,101139.22
2018-06-03T18:28:20.351Z,101134.38
2018-06-03T18:31:25.488Z,101132.04
2018-06-03T18:34:30.553Z,101130.32
2018-06-03T18:37:36.553Z,101134.96
2018-06-03T18:40:41.941Z,101141.42
2018-06-03T18:43:46.780Z,101137.06
2018-06-03T18:46:52.016Z,101135.65
2018-06-03T18:49:57.113Z,101132.97
2018-06-03T18:53:01.950Z,101129.42
2018-06-03T18:56:07.232Z,101125.91
2018-06-03T18:59:12.088Z,101126.77
2018-06-03T19:02:17.299Z,101127.66
2018-06-03T19:05:22.198Z,101120.81
2018-06-03T19:08:27.141Z,101119.08
2018-06-03T19:11:32.911Z,101119.48
2018-06-03T19:14:39.408Z,101116.07
2018-06-03T19:17:44.276Z,101112.66
2018-06-03T19:20:50.979Z,101113.19
2018-06-03T19:23:55.793Z,101103.25
2018-06-03T19:27:01.607Z,101106.73
2018-06-03T19:30:06.577Z,101104.63
2018-06-03T19:33:11.585Z,101105.16
2018-06-03T19:36:18.016Z,101106.92
2018-06-03T19:39:22.964Z,101105.41
2018-06-03T19:42:27.760Z,101105.94
2018-06-03T19:45:33.145Z,101108.81
2018-06-03T19:48:39.809Z,101108.50
2018-06-03T19:51:44.593Z,101109.59
2018-06-03T19:54:51.537Z,101114.12
2018-06-03T19:57:56.592Z,101113.80
2018-06-03T20:01:01.965Z,101113.11
2018-06-03T20:04:06.757Z,101116.66
2018-06-03T20:07:12.456Z,101112.08
2018-06-03T20:10:18.370Z,101112.08
2018-06-03T20:13:23.704Z,101112.64
2018-06-03T20:16:28.520Z,101115.75
2018-06-03T20:19:35.332Z,101109.70
2018-06-03T20:22:40.967Z,101113.63
2018-06-03T20:25:45.900Z,101112.92
2018-06-03T20:28:50.757Z,101112.46
2018-06-03T20:31:55.590Z,101117.78
2018-06-03T20:35:01.352Z,101118.71
2018-06-03T20:38:06.607Z,101112.34
2018-06-03T20:41:11.460Z,101116.22
2018-06-03T20:44:16.917Z,101115.88
2018-06-03T20:47:22.312Z,101116.81
2018-06-03T20:50:27.145Z,101119.03
2018-06-03T20:53:33.280Z,101130.04
2018-06-03T20:56:38.999Z,101117.80
2018-06-03T20:59:44.812Z,101119.70
2018-06-03T21:02:50.153Z,101116.71
2018-06-03T21:05:55.226Z,101118.45
2018-06-03T21:09:00.090Z,101120.94
2018-06-03T21:12:04.961Z,101122.31
2018-06-03T21:15:09.753Z,101122.63
2018-06-03T21:18:15.273Z,101118.48
2018-06-03T21:21:20.077Z,101116.44
2018-06-03T21:24:24.944Z,101117.25
2018-06-03T21:27:29.758Z,101121.11
2018-06-03T21:30:34.995Z,101122.39
2018-06-03T21:33:39.775Z,101120.58
2018-06-03T21:36:44.638Z,101120.56
2018-06-03T21:39:50.985Z,101121.89
2018-06-03T21:42:55.841Z,101131.22
2018-06-03T21:46:01.451Z,101126.44
2018-06-03T21:49:06.252Z,101126.89
2018-06-03T21:52:11.590Z,101122.94
2018-06-03T21:55:17.315Z,101121.15
2018-06-03T21:58:22.743Z,101116.84
2018-06-03T22:01:28.031Z,101117.28
2018-06-03T22:04:32.824Z,101114.41
2018-06-03T22:07:38.380Z,101111.09
2018-06-03T22:10:43.161Z,101107.78
2018-06-03T22:13:48.381Z,101106.78
2018-06-03T22:16:53.689Z,101114.84
2018-06-03T22:19:58.733Z,101113.13
2018-06-03T22:23:04.378Z,101110.17
2018-06-03T22:26:09.892Z,101120.31
2018-06-03T22:29:14.689Z,101115.53
2018-06-03T22:32:20.215Z,101117.41
2018-06-03T22:35:26.297Z,101112.54
2018-06-03T22:38:31.093Z,101112.37
2018-06-03T22:41:36.755Z,101115.64
2018-06-03T22:44:42.580Z,101111.61
2018-06-03T22:47:47.376Z,101112.73
2018-06-03T22:50:53.045Z,101115.76
2018-06-03T22:53:57.876Z,101115.86
2018-06-03T22:57:43.489Z,101111.07
2018-06-03T23:00:49.221Z,101117.84
2018-06-03T23:03:55.402Z,101113.88
2018-06-03T23:07:01.117Z,101114.09
2018-06-03T23:10:05.884Z,101109.48
2018-06-03T23:13:10.937Z,101114.02
2018-06-03T23:16:16.534Z,101104.12
2018-06-03T23:19:22.624Z,101106.66
2018-06-03T23:22:28.865Z,101109.83
2018-06-03T23:25:34.434Z,101118.61
2018-06-03T23:28:40.211Z,101109.86
2018-06-03T23:31:46.743Z,101107.01
2018-06-03T23:34:51.880Z,101107.66
2018-06-03T23:37:57.436Z,101103.87
2018-06-03T23:41:03.416Z,101097.23
2018-06-03T23:44:08.479Z,101101.41
2018-06-03T23:47:13.563Z,101095.60
2018-06-03T23:50:19.031Z,101090.52
2018-06-03T23:53:24.897Z,101087.67
2018-06-03T23:56:29.981Z,101087.95
2018-06-03T23:59:34.870Z,101087.23
